Time;durP1;ratioP1;P1;durP2;ratioP2;P2;SDS_P1;SDS_P2;PMS_P1;PMS_P2;Temp;Humidity;BMP_temperature;BMP_pressure;BME280_temperature;BME280_humidity;BME280_pressure;Samples;Min_cycle;Max_cycle;Signal;HPM_P1;HPM_P2
2021/12/30 00:01:00;;;;;;;7.90;2.33;;;;;;;11.51;79.86;98433.47;4209278;28;20207;-57
2021/12/30 00:03:03;;;;;;;1.85;1.20;;;;;;;11.47;79.80;98431.53;4211041;28;20206;-57
2021/12/30 00:05:05;;;;;;;6.50;1.20;;;;;;;11.46;79.86;98441.66;4210147;28;20614;-57
2021/12/30 00:07:09;;;;;;;2.22;1.10;;;;;;;11.49;79.72;98434.81;4207555;28;20211;-56
2021/12/30 00:09:14;;;;;;;3.08;1.20;;;;;;;11.42;80.12;98423.25;4212124;28;20712;-56
2021/12/30 00:11:16;;;;;;;2.83;1.10;;;;;;;11.44;80.04;98416.41;4209027;28;20237;-56
2021/12/30 00:13:19;;;;;;;4.03;1.10;;;;;;;11.43;79.69;98420.25;4213305;28;20191;-56
2021/12/30 00:15:21;;;;;;;10.35;1.48;;;;;;;11.41;79.97;98425.16;4226702;28;20714;-56
2021/12/30 00:17:23;;;;;;;4.65;1.73;;;;;;;11.40;79.65;98430.91;4210643;28;20226;-57
2021/12/30 00:19:24;;;;;;;3.35;1.30;;;;;;;11.42;79.99;98431.47;4211561;28;20199;-56
2021/12/30 00:21:26;;;;;;;3.20;1.02;;;;;;;11.34;80.46;98432.75;4210520;28;20664;-55
2021/12/30 00:23:28;;;;;;;4.18;1.30;;;;;;;11.31;80.58;98441.47;4211537;28;20198;-57
2021/12/30 00:25:37;;;;;;;1.50;1.02;;;;;;;11.33;80.50;98441.22;4209351;28;20206;-56
2021/12/30 00:27:40;;;;;;;4.20;1.42;;;;;;;11.43;80.39;98453.13;4211362;28;20283;-57
2021/12/30 00:29:41;;;;;;;1.30;1.08;;;;;;;11.43;80.50;98447.66;4203346;28;20284;-58
2021/12/30 00:31:43;;;;;;;2.80;1.20;;;;;;;11.49;80.31;98457.59;4204212;28;21679;-58
2021/12/30 00:33:45;;;;;;;2.28;1.13;;;;;;;11.44;80.54;98448.50;4210858;28;20207;-58
2021/12/30 00:35:47;;;;;;;3.25;1.48;;;;;;;11.48;80.42;98449.59;4208327;28;20560;-58
2021/12/30 00:37:49;;;;;;;3.35;1.33;;;;;;;11.37;80.69;98454.16;4208064;28;20874;-58
2021/12/30 00:39:50;;;;;;;3.97;1.30;;;;;;;11.36;80.77;98447.03;4210499;28;20207;-56
2021/12/30 00:41:52;;;;;;;2.15;1.02;;;;;;;11.56;80.53;98458.22;4226034;28;20229;-57
2021/12/30 00:43:54;;;;;;;1.67;1.10;;;;;;;11.49;80.31;98463.06;4206983;28;20203;-56
2021/12/30 00:45:56;;;;;;;3.03;1.17;;;;;;;11.51;80.44;98465.56;4208684;28;20195;-58
2021/12/30 00:47:58;;;;;;;1.70;1.50;;;;;;;11.58;80.25;98467.03;4211157;28;20564;-56
2021/12/30 00:50:00;;;;;;;1.17;0.98;;;;;;;11.55;80.49;98462.03;4208904;28;20210;-57
2021/12/30 00:52:03;;;;;;;1.92;1.42;;;;;;;11.56;80.46;98466.44;4210978;28;20289;-57
2021/12/30 00:54:07;;;;;;;1.25;1.10;;;;;;;11.60;80.46;98458.56;4203063;28;20618;-57
2021/12/30 00:56:09;;;;;;;2.05;1.55;;;;;;;11.49;80.46;98471.28;4210228;28;20229;-58
2021/12/30 00:58:13;;;;;;;3.95;1.42;;;;;;;11.50;80.87;98481.16;4208752;28;20951;-57
2021/12/30 01:00:16;;;;;;;2.42;1.10;;;;;;;11.41;80.99;98481.88;4204334;28;20207;-57
2021/12/30 01:02:20;;;;;;;3.47;1.48;;;;;;;11.50;80.91;98483.91;4209708;28;20206;-56
2021/12/30 01:04:22;;;;;;;2.95;1.13;;;;;;;11.45;81.09;98483.84;4209443;28;20209;-56
2021/12/30 01:06:23;;;;;;;2.88;1.27;;;;;;;11.50;80.85;98492.13;4210035;28;20211;-57
2021/12/30 01:08:25;;;;;;;4.85;1.50;;;;;;;11.40;81.21;98492.00;4225960;28;20254;-57
2021/12/30 01:10:27;;;;;;;5.28;1.88;;;;;;;11.42;80.92;98498.06;4211103;28;20688;-58
2021/12/30 01:12:34;;;;;;;4.05;1.60;;;;;;;11.40;81.06;98502.97;4208442;28;20575;-57
2021/12/30 01:14:36;;;;;;;6.63;1.80;;;;;;;11.44;80.77;98498.63;4226437;28;20292;-56
2021/12/30 01:16:42;;;;;;;7.22;2.13;;;;;;;11.44;80.92;98508.78;4208020;28;20226;-57
2021/12/30 01:19:01;;;;;;;4.43;2.03;;;;;;;11.46;80.87;98514.81;4226982;28;20222;-57
2021/12/30 01:21:05;;;;;;;3.88;1.80;;;;;;;11.40;81.00;98507.63;4210258;28;20203;-56
2021/12/30 01:23:06;;;;;;;3.10;1.52;;;;;;;11.39;80.86;98517.75;4226983;28;20202;-56
2021/12/30 01:25:11;;;;;;;3.85;2.08;;;;;;;11.36;81.19;98523.72;4212370;28;20559;-57
2021/12/30 01:27:13;;;;;;;3.85;1.38;;;;;;;11.33;81.09;98535.22;4212219;28;20718;-56
2021/12/30 01:29:15;;;;;;;1.40;1.20;;;;;;;11.36;81.10;98545.66;4211541;28;20740;-57
2021/12/30 01:31:17;;;;;;;3.55;1.30;;;;;;;11.29;81.53;98546.91;4207498;28;20253;-57
2021/12/30 01:33:19;;;;;;;6.40;2.30;;;;;;;11.29;81.45;98545.00;4208709;28;20264;-57
2021/12/30 01:35:25;;;;;;;2.30;1.58;;;;;;;11.30;81.54;98557.63;4208588;28;20249;-57
2021/12/30 01:37:27;;;;;;;5.13;1.52;;;;;;;11.32;81.29;98547.22;4207392;28;20241;-57
2021/12/30 01:39:29;;;;;;;6.55;1.90;;;;;;;11.34;81.38;98549.72;4209650;28;20229;-55
2021/12/30 01:41:30;;;;;;;11.88;2.78;;;;;;;11.32;81.37;98544.50;4208292;28;20256;-57
2021/12/30 01:43:34;;;;;;;3.63;1.80;;;;;;;11.27;81.87;98547.19;4201913;28;20693;-56
2021/12/30 01:45:38;;;;;;;4.60;1.73;;;;;;;11.38;81.50;98548.16;4206110;28;20199;-57
2021/12/30 01:47:47;;;;;;;3.78;1.27;;;;;;;11.42;81.43;98561.06;4208737;28;20277;-57
2021/12/30 01:49:51;;;;;;;5.80;2.28;;;;;;;11.52;81.22;98557.63;4207980;28;20207;-57
2021/12/30 01:51:54;;;;;;;7.22;2.25;;;;;;;11.49;81.70;98566.34;4207503;28;20210;-56
2021/12/30 01:53:57;;;;;;;6.32;1.90;;;;;;;11.48;81.91;98571.03;4209187;28;20230;-57
2021/12/30 01:55:59;;;;;;;7.22;2.45;;;;;;;11.53;81.56;98573.84;4201911;28;20287;-57
2021/12/30 01:58:02;;;;;;;4.68;1.63;;;;;;;11.51;81.90;98581.47;4208258;28;20218;-57
2021/12/30 02:00:07;;;;;;;4.18;2.13;;;;;;;11.47;82.11;98576.75;4206782;28;20199;-57
2021/12/30 02:02:09;;;;;;;3.50;2.45;;;;;;;11.57;82.02;98580.44;4203020;28;20269;-57
2021/12/30 02:04:12;;;;;;;4.43;2.00;;;;;;;11.67;81.90;98577.88;4206465;28;20289;-57
2021/12/30 02:06:13;;;;;;;5.18;1.98;;;;;;;11.70;82.03;98577.34;4208272;28;20325;-57
2021/12/30 02:08:17;;;;;;;4.18;1.85;;;;;;;11.70;82.27;98574.63;4206721;28;20663;-55
2021/12/30 02:10:19;;;;;;;5.22;2.28;;;;;;;11.66;82.04;98578.97;4206614;28;20237;-55
2021/12/30 02:12:21;;;;;;;11.93;2.22;;;;;;;11.67;82.08;98580.63;4192310;28;20210;-57
2021/12/30 02:14:23;;;;;;;5.07;2.20;;;;;;;11.77;82.30;98586.22;4208706;28;20241;-57
2021/12/30 02:16:25;;;;;;;8.90;2.50;;;;;;;11.74;82.66;98586.72;4210267;28;20241;-55
2021/12/30 02:18:28;;;;;;;5.82;2.33;;;;;;;11.75;82.43;98585.66;4207831;28;20230;-56
2021/12/30 02:20:46;;;;;;;6.07;1.92;;;;;;;11.73;82.40;98590.56;4208859;28;20281;-57
2021/12/30 02:22:48;;;;;;;6.13;1.95;;;;;;;11.68;82.68;98586.91;4225253;28;20208;-56
2021/12/30 02:24:50;;;;;;;5.15;2.00;;;;;;;11.74;83.05;98584.00;4224669;28;20740;-56
2021/12/30 02:26:52;;;;;;;4.55;2.30;;;;;;;11.71;82.84;98584.50;4208296;28;20690;-56
2021/12/30 02:28:53;;;;;;;4.68;2.53;;;;;;;11.66;83.24;98589.94;4209589;28;20680;-57
2021/12/30 02:30:57;;;;;;;4.25;2.28;;;;;;;11.66;83.22;98589.09;4208491;28;20225;-57
2021/12/30 02:32:58;;;;;;;3.63;1.92;;;;;;;11.77;83.02;98590.88;4209466;28;20689;-56
2021/12/30 02:35:00;;;;;;;10.80;4.47;;;;;;;11.76;82.99;98590.03;4200034;28;20210;-56
2021/12/30 02:37:02;;;;;;;9.70;2.20;;;;;;;11.78;82.96;98593.34;4200429;28;20203;-57
2021/12/30 02:39:06;;;;;;;3.92;2.03;;;;;;;11.75;83.13;98604.00;4208252;28;20234;-55
2021/12/30 02:41:08;;;;;;;4.60;1.98;;;;;;;11.77;83.26;98601.84;4208529;28;20211;-57
2021/12/30 02:43:14;;;;;;;4.63;1.90;;;;;;;11.74;83.32;98608.66;4208022;28;20656;-57
2021/12/30 02:45:18;;;;;;;2.88;1.63;;;;;;;11.73;83.25;98609.75;4207672;28;20195;-57
2021/12/30 02:47:20;;;;;;;4.60;1.60;;;;;;;11.75;83.66;98610.31;4225598;28;20226;-55
2021/12/30 02:49:22;;;;;;;5.50;1.85;;;;;;;11.82;83.55;98605.47;4209536;28;20202;-55
2021/12/30 02:51:25;;;;;;;5.32;1.67;;;;;;;11.87;83.36;98618.41;4209321;28;20260;-57
2021/12/30 02:53:27;;;;;;;3.20;1.30;;;;;;;11.93;83.42;98620.13;4213394;28;20222;-57
2021/12/30 02:55:29;;;;;;;2.65;1.80;;;;;;;11.87;83.50;98624.72;4213344;28;20210;-57
2021/12/30 02:57:30;;;;;;;4.72;1.80;;;;;;;11.88;83.46;98618.16;4227300;28;20229;-57
2021/12/30 02:59:32;;;;;;;3.08;1.48;;;;;;;11.90;83.36;98629.69;4213556;28;20222;-56
2021/12/30 03:01:34;;;;;;;3.55;1.52;;;;;;;11.95;83.68;98629.75;4209252;28;20207;-57
2021/12/30 03:03:36;;;;;;;5.68;1.63;;;;;;;11.98;83.54;98626.50;4212419;28;20213;-57
2021/12/30 03:05:38;;;;;;;6.00;1.52;;;;;;;11.98;83.89;98626.50;4211051;28;20233;-56
2021/12/30 03:07:40;;;;;;;4.82;1.50;;;;;;;11.97;83.67;98635.81;4228021;28;20264;-57
2021/12/30 03:09:41;;;;;;;2.47;1.52;;;;;;;12.03;83.81;98640.28;4211706;28;20206;-57
2021/12/30 03:11:43;;;;;;;3.40;1.33;;;;;;;12.02;83.81;98633.13;4210967;28;20304;-57
2021/12/30 03:13:45;;;;;;;4.03;1.50;;;;;;;11.97;83.80;98630.31;4210737;28;20298;-57
2021/12/30 03:15:47;;;;;;;6.60;1.40;;;;;;;11.88;83.76;98626.38;4209730;28;20289;-56
2021/12/30 03:17:49;;;;;;;2.53;1.30;;;;;;;11.93;84.14;98631.09;4211160;28;20226;-57
2021/12/30 03:19:54;;;;;;;1.80;1.33;;;;;;;12.00;83.91;98624.34;4206091;28;20218;-57
2021/12/30 03:21:56;;;;;;;2.08;1.30;;;;;;;11.93;83.97;98617.38;4214334;28;20245;-57
2021/12/30 03:24:01;;;;;;;1.83;1.52;;;;;;;11.92;83.84;98622.03;4211941;28;20211;-57
2021/12/30 03:26:05;;;;;;;3.65;1.10;;;;;;;11.95;84.09;98615.22;4214122;28;20238;-55
2021/12/30 03:28:07;;;;;;;1.13;0.88;;;;;;;12.02;84.03;98615.84;4212784;28;20590;-56
2021/12/30 03:30:13;;;;;;;1.75;0.88;;;;;;;12.04;83.75;98620.00;4227026;28;20250;-57
2021/12/30 03:32:14;;;;;;;0.90;0.90;;;;;;;12.01;83.78;98620.50;4213192;28;20228;-57
2021/12/30 03:34:16;;;;;;;1.38;0.75;;;;;;;12.02;83.81;98607.59;4212569;28;20237;-56
2021/12/30 03:36:19;;;;;;;1.17;0.70;;;;;;;12.00;83.93;98607.88;4212947;28;20203;-57
2021/12/30 03:38:21;;;;;;;2.55;0.82;;;;;;;11.99;84.02;98622.69;4209637;28;20557;-57
2021/12/30 03:40:23;;;;;;;0.77;0.70;;;;;;;11.95;83.80;98616.06;4211891;28;20719;-57
2021/12/30 03:42:25;;;;;;;2.60;0.90;;;;;;;11.93;84.02;98618.22;4219258;27;20203;-57
2021/12/30 03:44:26;;;;;;;1.08;0.90;;;;;;;11.97;84.13;98626.78;4209669;28;20563;-57
2021/12/30 03:46:29;;;;;;;1.02;0.80;;;;;;;12.02;83.97;98627.66;4209395;28;20215;-56
2021/12/30 03:48:34;;;;;;;1.67;0.82;;;;;;;12.06;83.82;98628.81;4206135;28;20612;-58
2021/12/30 03:50:42;;;;;;;1.15;0.70;;;;;;;12.07;83.80;98627.72;4211530;28;20222;-55
2021/12/30 03:52:45;;;;;;;4.05;0.80;;;;;;;12.09;84.02;98611.81;4208132;28;20206;-57
2021/12/30 03:54:47;;;;;;;1.58;0.80;;;;;;;12.02;84.07;98622.16;4188171;28;20256;-55
2021/12/30 03:56:49;;;;;;;1.25;0.73;;;;;;;12.02;84.10;98622.16;4210759;28;20199;-57
2021/12/30 03:58:50;;;;;;;0.82;0.60;;;;;;;12.09;84.01;98622.78;4222625;28;20249;-57
2021/12/30 04:00:52;;;;;;;0.70;0.65;;;;;;;12.08;83.81;98632.13;4209136;28;20206;-57
2021/12/30 04:02:55;;;;;;;0.88;0.60;;;;;;;12.09;84.04;98628.28;4210390;28;20202;-57
2021/12/30 04:04:56;;;;;;;0.73;0.63;;;;;;;12.17;83.74;98624.25;4208984;28;20199;-56
2021/12/30 04:06:58;;;;;;;0.88;0.50;;;;;;;12.16;83.68;98631.66;4211676;28;20336;-56
2021/12/30 04:09:00;;;;;;;0.65;0.65;;;;;;;12.19;83.88;98631.16;4211595;28;20203;-57
2021/12/30 04:11:02;;;;;;;0.68;0.60;;;;;;;12.16;83.60;98645.38;4205781;28;20724;-56
2021/12/30 04:13:04;;;;;;;0.90;0.50;;;;;;;12.12;84.03;98643.41;4209913;28;20667;-56
2021/12/30 04:15:07;;;;;;;1.38;0.60;;;;;;;12.24;83.76;98650.38;4211774;28;20716;-56
2021/12/30 04:17:09;;;;;;;0.43;0.43;;;;;;;12.22;83.32;98651.72;4210620;28;20206;-56
2021/12/30 04:19:11;;;;;;;0.52;0.52;;;;;;;12.26;83.52;98648.25;4227696;28;20226;-57
2021/12/30 04:21:12;;;;;;;0.45;0.40;;;;;;;12.28;83.54;98651.53;4210249;28;20194;-57
2021/12/30 04:23:15;;;;;;;0.85;0.70;;;;;;;12.29;83.53;98661.44;4210920;28;20199;-61
2021/12/30 04:25:16;;;;;;;0.63;0.50;;;;;;;12.36;83.31;98650.28;4209981;28;20206;-57
2021/12/30 04:27:18;;;;;;;0.95;0.50;;;;;;;12.35;83.71;98657.66;4211645;28;20222;-56
2021/12/30 04:29:21;;;;;;;0.50;0.50;;;;;;;12.35;83.62;98659.56;4212048;28;20214;-56
2021/12/30 04:31:23;;;;;;;0.70;0.70;;;;;;;12.38;83.72;98659.06;4211282;28;20654;-57
2021/12/30 04:33:25;;;;;;;0.63;0.50;;;;;;;12.40;83.65;98663.22;4209960;28;20237;-57
2021/12/30 04:35:27;;;;;;;0.47;0.47;;;;;;;12.36;83.72;98656.56;4211331;28;20214;-57
2021/12/30 04:37:28;;;;;;;0.60;0.60;;;;;;;12.37;83.50;98663.72;4209542;28;20985;-57
2021/12/30 04:39:30;;;;;;;1.45;1.35;;;;;;;12.33;83.71;98664.50;4209671;28;20261;-57
2021/12/30 04:41:32;;;;;;;0.50;0.40;;;;;;;12.36;83.74;98662.06;4210764;28;20664;-57
2021/12/30 04:43:34;;;;;;;0.70;0.60;;;;;;;12.33;84.06;98673.56;4211614;28;20210;-55
2021/12/30 04:45:36;;;;;;;0.50;0.50;;;;;;;12.41;83.86;98670.34;4209793;28;20286;-56
2021/12/30 04:47:39;;;;;;;0.60;0.60;;;;;;;12.43;84.01;98673.66;4211553;28;20633;-56
2021/12/30 04:49:41;;;;;;;0.52;0.52;;;;;;;12.43;83.91;98673.66;4209971;28;20202;-57
2021/12/30 04:51:43;;;;;;;0.60;0.60;;;;;;;12.44;84.06;98677.25;4208643;28;20320;-57
2021/12/30 04:53:45;;;;;;;0.60;0.60;;;;;;;12.40;83.88;98687.91;4209608;28;20707;-57
2021/12/30 04:55:47;;;;;;;1.23;0.50;;;;;;;12.45;83.96;98687.94;4211233;28;20209;-57
2021/12/30 04:57:49;;;;;;;0.68;0.40;;;;;;;12.47;83.99;98682.19;4191723;28;20231;-55
2021/12/30 04:59:51;;;;;;;0.50;0.50;;;;;;;12.45;83.86;98690.69;4210973;28;20209;-57
2021/12/30 05:01:53;;;;;;;0.52;0.52;;;;;;;12.49;84.06;98685.50;4208599;28;20198;-57
2021/12/30 05:03:55;;;;;;;1.90;0.57;;;;;;;12.50;84.22;98696.25;4209956;28;20285;-54
2021/12/30 05:05:58;;;;;;;1.02;0.70;;;;;;;12.52;84.15;98691.34;4209333;28;20222;-57
2021/12/30 05:07:59;;;;;;;0.80;0.80;;;;;;;12.50;83.85;98684.44;4209098;28;20222;-57
2021/12/30 05:10:01;;;;;;;0.63;0.63;;;;;;;12.50;83.93;98685.25;4206462;28;20198;-57
2021/12/30 05:12:03;;;;;;;0.70;0.70;;;;;;;12.54;83.78;98685.56;4206895;28;20211;-56
2021/12/30 05:14:05;;;;;;;0.75;0.70;;;;;;;12.52;84.10;98691.34;4208589;28;20214;-56
2021/12/30 05:16:07;;;;;;;1.55;0.52;;;;;;;12.54;84.10;98697.41;4208732;28;20210;-56
2021/12/30 05:18:10;;;;;;;1.20;0.70;;;;;;;12.51;83.83;98697.91;4210870;28;20226;-57
2021/12/30 05:20:12;;;;;;;0.80;0.80;;;;;;;12.52;83.99;98698.75;4210088;28;20297;-57
2021/12/30 05:22:14;;;;;;;1.20;1.13;;;;;;;12.53;84.31;98701.22;4208650;28;20195;-56
2021/12/30 05:24:16;;;;;;;0.70;0.70;;;;;;;12.50;84.42;98701.72;4209792;28;20237;-57
2021/12/30 05:26:18;;;;;;;0.50;0.50;;;;;;;12.45;84.13;98707.16;4207164;28;20238;-57
2021/12/30 05:28:20;;;;;;;1.25;0.60;;;;;;;12.54;83.93;98697.41;4222569;28;20225;-56
2021/12/30 05:30:23;;;;;;;0.60;0.60;;;;;;;12.56;84.38;98699.91;4212781;28;20589;-57
2021/12/30 05:32:24;;;;;;;0.50;0.50;;;;;;;12.55;84.34;98698.22;4226540;28;20856;-57
2021/12/30 05:34:26;;;;;;;0.50;0.50;;;;;;;12.51;84.01;98714.38;4210941;28;20202;-56
2021/12/30 05:36:28;;;;;;;0.70;0.65;;;;;;;12.49;84.27;98715.72;4208610;28;20198;-57
2021/12/30 05:38:30;;;;;;;3.75;0.73;;;;;;;12.55;83.95;98718.25;4209590;28;20227;-57
2021/12/30 05:40:32;;;;;;;1.08;0.70;;;;;;;12.57;83.84;98718.81;4190683;28;20227;-57
2021/12/30 05:42:34;;;;;;;0.93;0.88;;;;;;;12.55;84.07;98721.00;4207172;28;20211;-55
2021/12/30 05:44:37;;;;;;;0.50;0.50;;;;;;;12.58;84.01;98723.22;4207008;28;20293;-55
2021/12/30 05:46:38;;;;;;;1.75;0.82;;;;;;;12.58;83.98;98725.16;4208863;28;20198;-56
2021/12/30 05:48:40;;;;;;;0.93;0.50;;;;;;;12.56;84.04;98732.84;4209146;28;20642;-57
2021/12/30 05:50:42;;;;;;;1.42;0.77;;;;;;;12.57;84.25;98729.81;4223036;28;20237;-57
2021/12/30 05:52:45;;;;;;;0.75;0.75;;;;;;;12.55;83.89;98732.00;4208295;28;20862;-56
2021/12/30 05:54:46;;;;;;;0.68;0.68;;;;;;;12.55;84.15;98726.50;4206550;28;20203;-56
2021/12/30 05:56:56;;;;;;;0.70;0.70;;;;;;;12.58;84.19;98734.22;4205257;28;20282;-57
2021/12/30 05:59:00;;;;;;;0.80;0.80;;;;;;;12.63;83.81;98734.28;4225393;28;20247;-57
2021/12/30 06:01:02;;;;;;;0.50;0.50;;;;;;;12.62;83.53;98742.75;4207203;28;20595;-56
2021/12/30 06:03:04;;;;;;;0.40;0.40;;;;;;;12.58;84.02;98747.13;4222856;28;20202;-56
2021/12/30 06:05:06;;;;;;;1.10;0.65;;;;;;;12.57;83.98;98751.78;4209658;28;20558;-57
2021/12/30 06:07:09;;;;;;;0.55;0.50;;;;;;;12.60;84.14;98744.94;4213606;28;20199;-56
2021/12/30 06:09:11;;;;;;;0.52;0.52;;;;;;;12.56;83.98;98752.84;4211841;28;20198;-56
2021/12/30 06:11:12;;;;;;;0.40;0.40;;;;;;;12.62;84.17;98751.84;4207950;28;20707;-57
2021/12/30 06:13:20;;;;;;;1.05;0.47;;;;;;;12.60;84.02;98756.75;4192291;28;20256;-57
2021/12/30 06:15:22;;;;;;;1.90;0.70;;;;;;;12.61;84.05;98763.91;4219014;28;20194;-57
2021/12/30 06:17:24;;;;;;;0.43;0.43;;;;;;;12.61;83.78;98763.91;4208103;28;20300;-57
2021/12/30 06:19:26;;;;;;;0.57;0.57;;;;;;;12.65;83.54;98767.78;4207118;28;20307;-57
2021/12/30 06:21:27;;;;;;;0.40;0.40;;;;;;;12.69;83.76;98771.69;4203772;28;20210;-57
2021/12/30 06:23:29;;;;;;;0.50;0.50;;;;;;;12.64;83.88;98776.31;4210518;28;20229;-57
2021/12/30 06:25:31;;;;;;;0.65;0.55;;;;;;;12.62;83.67;98781.19;4205598;28;20210;-57
2021/12/30 06:27:32;;;;;;;0.52;0.52;;;;;;;12.58;83.62;98778.13;4207246;28;20262;-57
2021/12/30 06:29:34;;;;;;;0.60;0.60;;;;;;;12.61;83.69;98779.53;4190185;28;20210;-57
2021/12/30 06:31:38;;;;;;;0.50;0.50;;;;;;;12.57;84.19;98779.22;4206110;28;20223;-57
2021/12/30 06:33:40;;;;;;;0.98;0.45;;;;;;;12.63;83.88;98778.19;4207385;28;20801;-57
2021/12/30 06:35:42;;;;;;;0.55;0.55;;;;;;;12.70;83.24;98784.31;4208863;28;20203;-57
2021/12/30 06:37:44;;;;;;;0.50;0.50;;;;;;;12.68;83.69;98785.66;4206073;28;20797;-56
2021/12/30 06:39:45;;;;;;;1.55;0.40;;;;;;;12.62;83.30;98786.69;4206943;28;20241;-56
2021/12/30 06:41:50;;;;;;;0.95;0.57;;;;;;;12.68;83.50;98791.16;4208207;28;20253;-57
2021/12/30 06:43:51;;;;;;;1.55;0.70;;;;;;;12.65;83.33;98795.25;4211236;28;20614;-56
2021/12/30 06:45:53;;;;;;;0.63;0.63;;;;;;;12.60;83.72;98789.72;4207308;28;20240;-56
2021/12/30 06:47:55;;;;;;;0.60;0.60;;;;;;;12.61;83.67;98790.53;4206959;28;20215;-56
2021/12/30 06:50:01;;;;;;;0.50;0.50;;;;;;;12.61;83.52;98796.84;4207672;28;20271;-57
2021/12/30 06:52:08;;;;;;;0.60;0.60;;;;;;;12.63;83.42;98805.66;4205195;28;20305;-56
2021/12/30 06:54:10;;;;;;;2.58;0.63;;;;;;;12.64;83.75;98806.50;4207529;28;20229;-56
2021/12/30 06:56:13;;;;;;;0.52;0.52;;;;;;;12.73;83.64;98800.31;4221584;28;20291;-57
2021/12/30 06:58:15;;;;;;;0.50;0.50;;;;;;;12.66;83.40;98816.16;4206509;28;20222;-53
2021/12/30 07:00:28;;;;;;;0.60;0.57;;;;;;;12.67;83.77;98815.06;4187588;28;20476;-52
2021/12/30 07:02:30;;;;;;;1.23;0.80;;;;;;;12.66;83.38;98818.91;4205650;28;20724;-52
2021/12/30 07:04:33;;;;;;;0.50;0.50;;;;;;;12.61;83.57;98829.81;4210417;28;20217;-53
2021/12/30 07:06:35;;;;;;;0.77;0.75;;;;;;;12.57;83.86;98834.13;4209199;28;20211;-52
2021/12/30 07:08:37;;;;;;;0.80;0.80;;;;;;;12.69;83.37;98845.81;4189696;28;20676;-53
2021/12/30 07:10:41;;;;;;;1.30;1.00;;;;;;;12.64;83.40;98839.44;4207809;28;20205;-52
2021/12/30 07:12:43;;;;;;;0.80;0.80;;;;;;;12.64;83.62;98840.25;4179097;28;21652;-52
2021/12/30 07:14:44;;;;;;;0.75;0.75;;;;;;;12.64;83.46;98834.78;4187259;28;20570;-54
2021/12/30 07:16:47;;;;;;;1.10;0.90;;;;;;;12.69;83.81;98836.75;4199016;28;20207;-53
2021/12/30 07:18:48;;;;;;;0.70;0.70;;;;;;;12.68;83.73;98835.09;4206154;28;20219;-52
2021/12/30 07:20:50;;;;;;;1.77;0.77;;;;;;;12.62;83.35;98836.94;4224933;28;20827;-53
2021/12/30 07:22:52;;;;;;;0.70;0.70;;;;;;;12.67;83.58;98839.78;4204938;28;20211;-53
2021/12/30 07:24:55;;;;;;;0.85;0.82;;;;;;;12.61;83.90;98835.28;4191321;28;20230;-53
2021/12/30 07:26:57;;;;;;;0.70;0.70;;;;;;;12.62;83.88;98836.94;4214931;28;20263;-53
2021/12/30 07:29:00;;;;;;;0.70;0.70;;;;;;;12.65;83.67;98835.59;4214834;27;20222;-53
2021/12/30 07:31:01;;;;;;;0.70;0.70;;;;;;;12.65;83.67;98830.94;4197492;28;20237;-54
2021/12/30 07:33:06;;;;;;;0.93;0.60;;;;;;;12.65;83.57;98830.94;4219129;28;20695;-53
2021/12/30 07:35:08;;;;;;;1.05;0.73;;;;;;;12.64;83.62;98826.53;4192063;28;20254;-53
2021/12/30 07:37:14;;;;;;;0.60;0.60;;;;;;;12.64;83.21;98833.97;4194928;28;20210;-52
2021/12/30 07:39:15;;;;;;;0.70;0.70;;;;;;;12.60;83.42;98825.41;4177320;28;20203;-53
2021/12/30 07:41:20;;;;;;;0.82;0.63;;;;;;;12.66;83.62;98838.09;4201337;28;20203;-53
2021/12/30 07:43:22;;;;;;;0.90;0.90;;;;;;;12.70;83.33;98847.47;4206142;28;20207;-52
2021/12/30 07:45:24;;;;;;;1.50;0.85;;;;;;;12.76;83.08;98846.47;4205316;28;20634;-53
2021/12/30 07:47:27;;;;;;;0.90;0.77;;;;;;;12.71;83.32;98846.38;4197969;28;20230;-53
2021/12/30 07:49:28;;;;;;;1.38;0.70;;;;;;;12.79;83.06;98848.72;4218509;28;20198;-53
2021/12/30 07:52:37;;;;;;;0.95;0.63;;;;;;;12.84;82.77;98846.00;4201176;28;20623;-53
2021/12/30 07:55:02;;;;;;;0.75;0.75;;;;;;;12.78;82.88;98847.03;4194844;28;20235;-54
2021/12/30 07:57:05;;;;;;;0.80;0.80;;;;;;;12.80;83.06;98850.38;4204295;28;20296;-53
2021/12/30 07:59:06;;;;;;;1.35;0.80;;;;;;;12.79;82.44;98854.19;4187801;28;20668;-52
2021/12/30 08:01:08;;;;;;;1.42;0.88;;;;;;;12.81;83.08;98856.66;4207659;28;20229;-53
2021/12/30 08:03:10;;;;;;;0.93;0.80;;;;;;;12.86;82.64;98859.50;4217261;28;20283;-52
2021/12/30 08:05:14;;;;;;;0.60;0.60;;;;;;;12.87;82.47;98864.72;4226707;28;20198;-53
2021/12/30 08:07:22;;;;;;;5.43;0.80;;;;;;;12.80;82.62;98860.50;4227820;28;20710;-53
2021/12/30 08:09:25;;;;;;;4.47;0.70;;;;;;;12.87;82.36;98864.72;4211435;28;20256;-52
2021/12/30 08:11:27;;;;;;;0.63;0.63;;;;;;;12.90;82.18;98871.63;4207584;28;20579;-52
2021/12/30 08:13:29;;;;;;;1.40;1.25;;;;;;;12.87;82.44;98867.47;4210145;28;20275;-52
2021/12/30 08:15:30;;;;;;;2.05;0.77;;;;;;;12.88;82.55;98880.13;4206598;28;20351;-52
2021/12/30 08:17:33;;;;;;;0.68;0.68;;;;;;;12.87;82.58;98867.47;4187548;28;20269;-53
2021/12/30 08:19:35;;;;;;;1.58;1.02;;;;;;;12.90;82.08;98871.63;4218008;28;20674;-53
2021/12/30 08:21:41;;;;;;;1.40;0.85;;;;;;;12.92;82.33;98877.69;4206634;28;20313;-52
2021/12/30 08:23:43;;;;;;;0.80;0.80;;;;;;;12.95;82.17;98875.28;4205737;28;20248;-52
2021/12/30 08:25:49;;;;;;;0.80;0.80;;;;;;;12.96;81.87;98870.66;4189226;28;20231;-53
2021/12/30 08:27:51;;;;;;;0.75;0.75;;;;;;;12.99;81.82;98875.63;4207031;28;20619;-52
2021/12/30 08:29:52;;;;;;;1.73;0.70;;;;;;;13.01;81.67;98878.94;4207337;28;20204;-52
2021/12/30 08:31:54;;;;;;;0.88;0.80;;;;;;;13.02;82.04;98883.31;4191215;28;20238;-53
2021/12/30 08:33:57;;;;;;;0.80;0.80;;;;;;;12.98;81.72;98874.78;4204555;28;20207;-53
2021/12/30 08:35:59;;;;;;;0.98;0.60;;;;;;;12.98;81.63;98877.50;4205252;28;20238;-52
2021/12/30 08:38:00;;;;;;;0.65;0.50;;;;;;;12.98;81.82;98884.94;4222428;28;20706;-54
2021/12/30 08:40:07;;;;;;;2.13;0.68;;;;;;;12.99;81.92;98887.44;4203988;28;20616;-52
2021/12/30 08:42:32;;;;;;;0.60;0.60;;;;;;;12.98;81.88;98873.97;4206169;28;20239;-54
2021/12/30 08:44:34;;;;;;;0.88;0.82;;;;;;;13.03;81.82;98877.59;4189091;28;21110;-53
2021/12/30 08:46:36;;;;;;;0.50;0.50;;;;;;;12.99;81.82;98881.09;4206990;28;20652;-53
2021/12/30 08:48:39;;;;;;;1.25;0.60;;;;;;;12.99;82.17;98881.94;4189744;28;20242;-52
2021/12/30 08:50:41;;;;;;;0.80;0.80;;;;;;;12.96;81.83;98876.13;4211542;28;20217;-53
2021/12/30 08:52:59;;;;;;;0.60;0.60;;;;;;;12.98;81.85;98880.25;4205617;28;20740;-54
2021/12/30 08:55:06;;;;;;;1.52;0.60;;;;;;;13.01;82.32;98890.75;4207212;28;20550;-52
2021/12/30 08:57:12;;;;;;;0.52;0.52;;;;;;;12.98;81.84;98891.25;4221021;28;20221;-54
2021/12/30 08:59:19;;;;;;;0.93;0.93;;;;;;;12.96;82.09;98898.13;4207416;28;20218;-53
2021/12/30 09:01:28;;;;;;;1.00;0.68;;;;;;;12.97;82.23;98892.34;4220968;28;20333;-53
2021/12/30 09:03:33;;;;;;;0.80;0.80;;;;;;;12.99;81.96;98898.44;4223823;28;20217;-52
2021/12/30 09:05:36;;;;;;;0.90;0.85;;;;;;;13.01;81.86;98893.50;4223837;28;20243;-53
2021/12/30 09:07:48;;;;;;;0.65;0.63;;;;;;;13.00;82.19;98905.59;4223443;28;20217;-53
2021/12/30 09:09:51;;;;;;;0.75;0.75;;;;;;;12.99;81.98;98903.94;4224888;27;20202;-53
2021/12/30 09:11:53;;;;;;;1.00;1.00;;;;;;;12.97;82.14;98913.50;4222821;28;20296;-53
2021/12/30 09:13:55;;;;;;;2.50;0.80;;;;;;;12.96;82.19;98915.41;4227802;27;20216;-52
2021/12/30 09:15:57;;;;;;;1.08;0.88;;;;;;;13.00;81.58;98916.56;4222799;28;20210;-53
2021/12/30 09:17:59;;;;;;;0.80;0.80;;;;;;;13.02;81.61;98930.88;4218393;28;20237;-54
2021/12/30 09:20:00;;;;;;;0.90;0.80;;;;;;;13.03;81.96;98927.03;4222876;28;20233;-54
2021/12/30 09:22:02;;;;;;;0.98;0.95;;;;;;;13.06;81.86;98932.03;4223373;28;20232;-52
2021/12/30 09:24:05;;;;;;;1.63;0.70;;;;;;;13.06;81.83;98932.03;4224293;28;20268;-53
2021/12/30 09:26:07;;;;;;;0.77;0.77;;;;;;;13.06;81.69;98932.03;4223657;28;20194;-54
2021/12/30 09:28:12;;;;;;;0.65;0.65;;;;;;;13.10;81.67;98927.69;4223641;27;20229;-52
2021/12/30 09:30:15;;;;;;;1.27;1.00;;;;;;;13.13;81.27;98929.94;4225094;28;20268;-54
2021/12/30 09:32:17;;;;;;;1.52;0.90;;;;;;;13.08;81.41;98938.09;4225361;27;20683;-52
2021/12/30 09:34:20;;;;;;;0.90;0.90;;;;;;;13.15;81.38;98946.13;4223306;28;20198;-52
2021/12/30 09:36:23;;;;;;;1.10;1.10;;;;;;;13.17;81.35;98947.53;4234407;27;20232;-52
2021/12/30 09:38:24;;;;;;;0.80;0.80;;;;;;;13.14;81.25;98950.81;4224073;28;20233;-53
2021/12/30 09:40:27;;;;;;;1.33;0.88;;;;;;;13.10;81.46;98955.16;4223472;28;20210;-53